sensor_id;sensor_type;location;lat;lon;timestamp;P1;durP1;ratioP1;P2;durP2;ratioP2
62984;SDS011;49080;50.062;19.892;2023-12-07T00:01:30;40.20;;;32.60;;
62984;SDS011;49080;50.062;19.892;2023-12-07T00:04:03;37.00;;;28.90;;
62984;SDS011;49080;50.062;19.892;2023-12-07T00:06:35;32.80;;;26.10;;
62984;SDS011;49080;50.062;19.892;2023-12-07T00:09:08;46.20;;;35.20;;
62984;SDS011;49080;50.062;19.892;2023-12-07T00:11:39;29.10;;;24.00;;
62984;SDS011;49080;50.062;19.892;2023-12-07T00:14:11;35.20;;;25.50;;
62984;SDS011;49080;50.062;19.892;2023-12-07T00:16:43;36.20;;;28.00;;
62984;SDS011;49080;50.062;19.892;2023-12-07T00:19:16;33.40;;;27.20;;
62984;SDS011;49080;50.062;19.892;2023-12-07T00:21:48;36.90;;;29.20;;
62984;SDS011;49080;50.062;19.892;2023-12-07T00:24:20;32.30;;;25.60;;
62984;SDS011;49080;50.062;19.892;2023-12-07T00:26:52;65.70;;;47.60;;
62984;SDS011;49080;50.062;19.892;2023-12-07T00:29:25;30.70;;;24.00;;
62984;SDS011;49080;50.062;19.892;2023-12-07T00:31:57;34.20;;;26.20;;
62984;SDS011;49080;50.062;19.892;2023-12-07T00:34:30;34.90;;;25.70;;
62984;SDS011;49080;50.062;19.892;2023-12-07T00:37:02;34.30;;;26.70;;
62984;SDS011;49080;50.062;19.892;2023-12-07T00:39:34;24.80;;;20.90;;
62984;SDS011;49080;50.062;19.892;2023-12-07T00:42:06;31.80;;;23.60;;
62984;SDS011;49080;50.062;19.892;2023-12-07T00:44:40;20.00;;;16.90;;
62984;SDS011;49080;50.062;19.892;2023-12-07T00:47:12;45.90;;;33.20;;
62984;SDS011;49080;50.062;19.892;2023-12-07T00:49:44;17.00;;;14.90;;
62984;SDS011;49080;50.062;19.892;2023-12-07T00:52:16;29.50;;;23.70;;
62984;SDS011;49080;50.062;19.892;2023-12-07T00:54:48;46.20;;;34.80;;
62984;SDS011;49080;50.062;19.892;2023-12-07T00:57:20;41.10;;;30.60;;
62984;SDS011;49080;50.062;19.892;2023-12-07T00:59:53;16.00;;;12.80;;
62984;SDS011;49080;50.062;19.892;2023-12-07T01:02:25;16.00;;;13.30;;
62984;SDS011;49080;50.062;19.892;2023-12-07T01:04:57;15.30;;;11.40;;
62984;SDS011;49080;50.062;19.892;2023-12-07T01:07:29;17.20;;;12.40;;
62984;SDS011;49080;50.062;19.892;2023-12-07T01:10:01;25.70;;;19.10;;
62984;SDS011;49080;50.062;19.892;2023-12-07T01:12:34;14.80;;;11.00;;
62984;SDS011;49080;50.062;19.892;2023-12-07T01:15:06;11.50;;;7.80;;
62984;SDS011;49080;50.062;19.892;2023-12-07T01:17:39;12.10;;;7.90;;
62984;SDS011;49080;50.062;19.892;2023-12-07T01:20:11;9.70;;;7.20;;
62984;SDS011;49080;50.062;19.892;2023-12-07T01:22:43;11.20;;;7.70;;
62984;SDS011;49080;50.062;19.892;2023-12-07T01:25:16;20.90;;;14.10;;
62984;SDS011;49080;50.062;19.892;2023-12-07T01:27:51;21.10;;;15.10;;
62984;SDS011;49080;50.062;19.892;2023-12-07T01:30:24;16.50;;;11.20;;
62984;SDS011;49080;50.062;19.892;2023-12-07T01:32:56;11.10;;;6.80;;
62984;SDS011;49080;50.062;19.892;2023-12-07T01:35:28;11.60;;;7.50;;
62984;SDS011;49080;50.062;19.892;2023-12-07T01:38:01;24.30;;;17.00;;
62984;SDS011;49080;50.062;19.892;2023-12-07T01:40:33;15.50;;;11.10;;
62984;SDS011;49080;50.062;19.892;2023-12-07T01:43:05;11.80;;;8.30;;
62984;SDS011;49080;50.062;19.892;2023-12-07T01:45:37;19.90;;;16.10;;
62984;SDS011;49080;50.062;19.892;2023-12-07T01:48:09;13.90;;;10.00;;
62984;SDS011;49080;50.062;19.892;2023-12-07T01:50:41;22.90;;;15.50;;
62984;SDS011;49080;50.062;19.892;2023-12-07T01:53:13;13.60;;;10.10;;
62984;SDS011;49080;50.062;19.892;2023-12-07T01:55:45;12.70;;;8.60;;
62984;SDS011;49080;50.062;19.892;2023-12-07T01:58:18;14.80;;;9.10;;
62984;SDS011;49080;50.062;19.892;2023-12-07T02:00:51;11.50;;;7.30;;
62984;SDS011;49080;50.062;19.892;2023-12-07T02:03:23;12.80;;;9.20;;
62984;SDS011;49080;50.062;19.892;2023-12-07T02:05:56;15.60;;;10.60;;
62984;SDS011;49080;50.062;19.892;2023-12-07T02:08:29;15.20;;;11.10;;
62984;SDS011;49080;50.062;19.892;2023-12-07T02:11:01;10.20;;;7.30;;
62984;SDS011;49080;50.062;19.892;2023-12-07T02:13:33;16.40;;;11.00;;
62984;SDS011;49080;50.062;19.892;2023-12-07T02:16:07;12.60;;;8.90;;
62984;SDS011;49080;50.062;19.892;2023-12-07T02:18:44;19.90;;;15.00;;
62984;SDS011;49080;50.062;19.892;2023-12-07T02:21:25;17.50;;;12.00;;
62984;SDS011;49080;50.062;19.892;2023-12-07T02:24:00;13.70;;;10.00;;
62984;SDS011;49080;50.062;19.892;2023-12-07T02:29:25;12.00;;;8.40;;
62984;SDS011;49080;50.062;19.892;2023-12-07T02:31:57;21.80;;;16.40;;
62984;SDS011;49080;50.062;19.892;2023-12-07T02:34:30;16.00;;;12.30;;
62984;SDS011;49080;50.062;19.892;2023-12-07T02:37:02;16.80;;;12.10;;
62984;SDS011;49080;50.062;19.892;2023-12-07T02:39:35;16.90;;;11.70;;
62984;SDS011;49080;50.062;19.892;2023-12-07T02:42:07;18.70;;;12.80;;
62984;SDS011;49080;50.062;19.892;2023-12-07T02:44:40;12.60;;;8.50;;
62984;SDS011;49080;50.062;19.892;2023-12-07T02:47:12;8.40;;;5.60;;
62984;SDS011;49080;50.062;19.892;2023-12-07T02:49:44;14.70;;;10.80;;
62984;SDS011;49080;50.062;19.892;2023-12-07T02:52:16;14.30;;;9.70;;
62984;SDS011;49080;50.062;19.892;2023-12-07T02:54:48;12.00;;;8.30;;
62984;SDS011;49080;50.062;19.892;2023-12-07T02:57:20;10.20;;;6.80;;
62984;SDS011;49080;50.062;19.892;2023-12-07T02:59:52;14.00;;;10.00;;
62984;SDS011;49080;50.062;19.892;2023-12-07T03:02:24;15.30;;;10.40;;
62984;SDS011;49080;50.062;19.892;2023-12-07T03:04:56;14.70;;;10.60;;
62984;SDS011;49080;50.062;19.892;2023-12-07T03:07:28;10.30;;;7.20;;
62984;SDS011;49080;50.062;19.892;2023-12-07T03:10:01;16.60;;;11.20;;
62984;SDS011;49080;50.062;19.892;2023-12-07T03:12:33;9.90;;;6.70;;
62984;SDS011;49080;50.062;19.892;2023-12-07T03:15:06;16.80;;;11.50;;
62984;SDS011;49080;50.062;19.892;2023-12-07T03:17:39;15.20;;;10.80;;
62984;SDS011;49080;50.062;19.892;2023-12-07T03:20:12;27.30;;;17.60;;
62984;SDS011;49080;50.062;19.892;2023-12-07T03:22:45;19.50;;;13.90;;
62984;SDS011;49080;50.062;19.892;2023-12-07T03:25:17;22.70;;;16.50;;
62984;SDS011;49080;50.062;19.892;2023-12-07T03:27:49;18.50;;;12.70;;
62984;SDS011;49080;50.062;19.892;2023-12-07T03:30:21;19.20;;;13.20;;
62984;SDS011;49080;50.062;19.892;2023-12-07T03:32:53;10.40;;;7.20;;
62984;SDS011;49080;50.062;19.892;2023-12-07T03:35:25;12.70;;;7.80;;
62984;SDS011;49080;50.062;19.892;2023-12-07T03:37:57;25.70;;;18.60;;
62984;SDS011;49080;50.062;19.892;2023-12-07T03:40:29;19.00;;;13.00;;
62984;SDS011;49080;50.062;19.892;2023-12-07T03:43:02;22.80;;;16.20;;
62984;SDS011;49080;50.062;19.892;2023-12-07T03:45:34;33.00;;;24.70;;
62984;SDS011;49080;50.062;19.892;2023-12-07T03:48:06;19.50;;;14.00;;
62984;SDS011;49080;50.062;19.892;2023-12-07T03:50:39;17.40;;;12.20;;
62984;SDS011;49080;50.062;19.892;2023-12-07T03:53:11;20.80;;;13.80;;
62984;SDS011;49080;50.062;19.892;2023-12-07T03:55:43;20.40;;;14.70;;
62984;SDS011;49080;50.062;19.892;2023-12-07T03:58:15;17.40;;;11.20;;
62984;SDS011;49080;50.062;19.892;2023-12-07T04:00:47;11.10;;;6.60;;
62984;SDS011;49080;50.062;19.892;2023-12-07T04:03:19;9.20;;;5.90;;
62984;SDS011;49080;50.062;19.892;2023-12-07T04:05:52;18.00;;;11.50;;
62984;SDS011;49080;50.062;19.892;2023-12-07T04:08:24;12.10;;;8.00;;
62984;SDS011;49080;50.062;19.892;2023-12-07T04:10:56;11.10;;;7.90;;
62984;SDS011;49080;50.062;19.892;2023-12-07T04:13:28;16.50;;;12.60;;
62984;SDS011;49080;50.062;19.892;2023-12-07T04:16:00;19.60;;;13.10;;
62984;SDS011;49080;50.062;19.892;2023-12-07T04:18:32;14.10;;;9.90;;
62984;SDS011;49080;50.062;19.892;2023-12-07T04:21:05;11.90;;;8.40;;
62984;SDS011;49080;50.062;19.892;2023-12-07T04:23:37;14.70;;;10.20;;
62984;SDS011;49080;50.062;19.892;2023-12-07T04:26:09;14.10;;;10.70;;
62984;SDS011;49080;50.062;19.892;2023-12-07T04:28:41;24.20;;;17.70;;
62984;SDS011;49080;50.062;19.892;2023-12-07T04:31:13;16.70;;;11.70;;
62984;SDS011;49080;50.062;19.892;2023-12-07T04:33:45;12.30;;;8.80;;
62984;SDS011;49080;50.062;19.892;2023-12-07T04:36:17;11.20;;;8.10;;
62984;SDS011;49080;50.062;19.892;2023-12-07T04:38:49;10.90;;;7.90;;
62984;SDS011;49080;50.062;19.892;2023-12-07T04:41:21;15.90;;;11.30;;
62984;SDS011;49080;50.062;19.892;2023-12-07T04:43:53;14.60;;;10.50;;
62984;SDS011;49080;50.062;19.892;2023-12-07T04:46:25;24.20;;;18.10;;
62984;SDS011;49080;50.062;19.892;2023-12-07T04:48:57;11.40;;;8.40;;
62984;SDS011;49080;50.062;19.892;2023-12-07T04:51:30;14.10;;;9.50;;
62984;SDS011;49080;50.062;19.892;2023-12-07T04:54:02;13.60;;;9.00;;
62984;SDS011;49080;50.062;19.892;2023-12-07T04:56:47;19.20;;;14.30;;
62984;SDS011;49080;50.062;19.892;2023-12-07T04:59:19;19.80;;;14.30;;
62984;SDS011;49080;50.062;19.892;2023-12-07T05:01:51;30.90;;;22.60;;
62984;SDS011;49080;50.062;19.892;2023-12-07T05:04:23;22.80;;;17.70;;
62984;SDS011;49080;50.062;19.892;2023-12-07T05:06:56;20.90;;;14.50;;
62984;SDS011;49080;50.062;19.892;2023-12-07T05:09:28;19.50;;;14.20;;
62984;SDS011;49080;50.062;19.892;2023-12-07T05:12:00;17.30;;;11.80;;
62984;SDS011;49080;50.062;19.892;2023-12-07T05:14:33;19.70;;;14.30;;
62984;SDS011;49080;50.062;19.892;2023-12-07T05:17:05;22.10;;;15.10;;
62984;SDS011;49080;50.062;19.892;2023-12-07T05:19:37;13.90;;;9.90;;
62984;SDS011;49080;50.062;19.892;2023-12-07T05:22:09;11.60;;;7.60;;
62984;SDS011;49080;50.062;19.892;2023-12-07T05:24:41;17.50;;;12.30;;
62984;SDS011;49080;50.062;19.892;2023-12-07T05:27:13;13.00;;;8.90;;
62984;SDS011;49080;50.062;19.892;2023-12-07T05:29:45;10.30;;;7.50;;
62984;SDS011;49080;50.062;19.892;2023-12-07T05:32:17;25.90;;;19.50;;
62984;SDS011;49080;50.062;19.892;2023-12-07T05:34:50;28.10;;;21.30;;
62984;SDS011;49080;50.062;19.892;2023-12-07T05:37:22;14.20;;;10.90;;
62984;SDS011;49080;50.062;19.892;2023-12-07T05:39:54;22.90;;;17.90;;
62984;SDS011;49080;50.062;19.892;2023-12-07T05:42:26;13.20;;;9.90;;
62984;SDS011;49080;50.062;19.892;2023-12-07T05:44:58;12.30;;;8.60;;
62984;SDS011;49080;50.062;19.892;2023-12-07T05:47:30;17.10;;;11.40;;
62984;SDS011;49080;50.062;19.892;2023-12-07T05:50:03;43.40;;;32.10;;
62984;SDS011;49080;50.062;19.892;2023-12-07T05:52:36;17.00;;;13.00;;
62984;SDS011;49080;50.062;19.892;2023-12-07T05:55:08;16.30;;;12.20;;
62984;SDS011;49080;50.062;19.892;2023-12-07T05:57:40;22.30;;;15.40;;
62984;SDS011;49080;50.062;19.892;2023-12-07T06:00:13;11.90;;;9.00;;
62984;SDS011;49080;50.062;19.892;2023-12-07T06:02:47;9.10;;;6.50;;
62984;SDS011;49080;50.062;19.892;2023-12-07T06:05:19;15.30;;;11.40;;
62984;SDS011;49080;50.062;19.892;2023-12-07T06:07:52;16.00;;;11.80;;
62984;SDS011;49080;50.062;19.892;2023-12-07T06:10:25;10.90;;;7.80;;
62984;SDS011;49080;50.062;19.892;2023-12-07T06:12:57;10.90;;;7.60;;
62984;SDS011;49080;50.062;19.892;2023-12-07T06:15:30;13.50;;;8.80;;
62984;SDS011;49080;50.062;19.892;2023-12-07T06:18:02;18.20;;;12.90;;
62984;SDS011;49080;50.062;19.892;2023-12-07T06:20:34;33.40;;;24.60;;
62984;SDS011;49080;50.062;19.892;2023-12-07T06:23:06;22.60;;;16.90;;
62984;SDS011;49080;50.062;19.892;2023-12-07T06:25:41;15.90;;;11.70;;
62984;SDS011;49080;50.062;19.892;2023-12-07T06:28:14;21.30;;;15.80;;
62984;SDS011;49080;50.062;19.892;2023-12-07T06:30:46;32.10;;;24.20;;
62984;SDS011;49080;50.062;19.892;2023-12-07T06:33:18;20.30;;;15.40;;
62984;SDS011;49080;50.062;19.892;2023-12-07T06:35:51;27.50;;;20.80;;
62984;SDS011;49080;50.062;19.892;2023-12-07T06:38:23;32.40;;;24.60;;
62984;SDS011;49080;50.062;19.892;2023-12-07T06:40:55;19.10;;;14.30;;
62984;SDS011;49080;50.062;19.892;2023-12-07T06:43:27;29.60;;;23.10;;
62984;SDS011;49080;50.062;19.892;2023-12-07T06:45:59;33.40;;;24.70;;
62984;SDS011;49080;50.062;19.892;2023-12-07T06:48:31;17.40;;;13.40;;
62984;SDS011;49080;50.062;19.892;2023-12-07T06:51:04;14.80;;;9.80;;
62984;SDS011;49080;50.062;19.892;2023-12-07T06:53:36;22.30;;;16.00;;
62984;SDS011;49080;50.062;19.892;2023-12-07T06:56:09;60.60;;;43.50;;
62984;SDS011;49080;50.062;19.892;2023-12-07T06:58:41;31.10;;;24.10;;
62984;SDS011;49080;50.062;19.892;2023-12-07T07:01:14;32.30;;;24.70;;
62984;SDS011;49080;50.062;19.892;2023-12-07T07:03:46;13.90;;;10.50;;
62984;SDS011;49080;50.062;19.892;2023-12-07T07:06:19;20.70;;;16.00;;
62984;SDS011;49080;50.062;19.892;2023-12-07T07:08:51;11.80;;;7.70;;
62984;SDS011;49080;50.062;19.892;2023-12-07T07:11:27;30.80;;;22.40;;
62984;SDS011;49080;50.062;19.892;2023-12-07T07:13:59;23.90;;;16.90;;
62984;SDS011;49080;50.062;19.892;2023-12-07T07:16:31;35.70;;;25.40;;
62984;SDS011;49080;50.062;19.892;2023-12-07T07:19:03;23.20;;;16.40;;
62984;SDS011;49080;50.062;19.892;2023-12-07T07:21:35;34.60;;;28.20;;
62984;SDS011;49080;50.062;19.892;2023-12-07T07:24:07;20.90;;;15.90;;
62984;SDS011;49080;50.062;19.892;2023-12-07T07:26:39;24.10;;;19.70;;
62984;SDS011;49080;50.062;19.892;2023-12-07T07:29:11;40.50;;;31.40;;
62984;SDS011;49080;50.062;19.892;2023-12-07T07:31:43;37.10;;;29.10;;
62984;SDS011;49080;50.062;19.892;2023-12-07T07:34:16;67.70;;;52.40;;
62984;SDS011;49080;50.062;19.892;2023-12-07T07:36:48;27.50;;;23.40;;
62984;SDS011;49080;50.062;19.892;2023-12-07T07:39:20;37.20;;;29.80;;
62984;SDS011;49080;50.062;19.892;2023-12-07T07:41:52;52.60;;;39.00;;
62984;SDS011;49080;50.062;19.892;2023-12-07T07:44:24;31.20;;;24.50;;
62984;SDS011;49080;50.062;19.892;2023-12-07T07:46:56;29.70;;;21.80;;
62984;SDS011;49080;50.062;19.892;2023-12-07T07:49:28;53.60;;;42.40;;
62984;SDS011;49080;50.062;19.892;2023-12-07T07:52:00;24.30;;;20.50;;
62984;SDS011;49080;50.062;19.892;2023-12-07T07:54:34;25.90;;;21.00;;
62984;SDS011;49080;50.062;19.892;2023-12-07T07:57:06;25.10;;;20.60;;
62984;SDS011;49080;50.062;19.892;2023-12-07T07:59:38;63.80;;;51.80;;
62984;SDS011;49080;50.062;19.892;2023-12-07T08:02:10;49.30;;;42.10;;
62984;SDS011;49080;50.062;19.892;2023-12-07T08:04:42;44.10;;;35.60;;
62984;SDS011;49080;50.062;19.892;2023-12-07T08:07:15;40.30;;;34.50;;
62984;SDS011;49080;50.062;19.892;2023-12-07T08:09:47;67.60;;;50.80;;
62984;SDS011;49080;50.062;19.892;2023-12-07T08:12:19;26.80;;;23.70;;
62984;SDS011;49080;50.062;19.892;2023-12-07T08:14:52;27.00;;;22.10;;
62984;SDS011;49080;50.062;19.892;2023-12-07T08:17:25;29.00;;;23.90;;
62984;SDS011;49080;50.062;19.892;2023-12-07T08:19:59;45.30;;;33.30;;
62984;SDS011;49080;50.062;19.892;2023-12-07T08:22:31;64.00;;;50.70;;
62984;SDS011;49080;50.062;19.892;2023-12-07T08:25:03;60.90;;;45.20;;
62984;SDS011;49080;50.062;19.892;2023-12-07T08:27:40;42.30;;;32.90;;
62984;SDS011;49080;50.062;19.892;2023-12-07T08:30:13;42.60;;;34.00;;
62984;SDS011;49080;50.062;19.892;2023-12-07T08:32:45;21.90;;;18.60;;
62984;SDS011;49080;50.062;19.892;2023-12-07T08:35:17;62.30;;;46.60;;
62984;SDS011;49080;50.062;19.892;2023-12-07T08:37:50;26.90;;;22.50;;
62984;SDS011;49080;50.062;19.892;2023-12-07T08:40:22;20.60;;;16.90;;
62984;SDS011;49080;50.062;19.892;2023-12-07T08:42:55;17.40;;;14.40;;
62984;SDS011;49080;50.062;19.892;2023-12-07T08:45:27;55.60;;;43.60;;
62984;SDS011;49080;50.062;19.892;2023-12-07T08:47:59;24.40;;;20.30;;
62984;SDS011;49080;50.062;19.892;2023-12-07T08:50:31;53.20;;;41.10;;
62984;SDS011;49080;50.062;19.892;2023-12-07T08:53:03;50.90;;;41.70;;
62984;SDS011;49080;50.062;19.892;2023-12-07T08:55:35;45.50;;;36.40;;
62984;SDS011;49080;50.062;19.892;2023-12-07T08:58:07;25.70;;;21.80;;
62984;SDS011;49080;50.062;19.892;2023-12-07T09:00:39;44.70;;;34.70;;
62984;SDS011;49080;50.062;19.892;2023-12-07T09:03:11;54.10;;;43.50;;
62984;SDS011;49080;50.062;19.892;2023-12-07T09:05:43;47.90;;;38.70;;
62984;SDS011;49080;50.062;19.892;2023-12-07T09:08:16;28.40;;;22.90;;
62984;SDS011;49080;50.062;19.892;2023-12-07T09:10:48;25.80;;;21.20;;
62984;SDS011;49080;50.062;19.892;2023-12-07T09:13:20;45.80;;;37.80;;
62984;SDS011;49080;50.062;19.892;2023-12-07T09:15:53;55.70;;;43.40;;
62984;SDS011;49080;50.062;19.892;2023-12-07T09:18:25;54.30;;;44.50;;
62984;SDS011;49080;50.062;19.892;2023-12-07T09:20:57;59.80;;;48.20;;
62984;SDS011;49080;50.062;19.892;2023-12-07T09:23:30;45.40;;;37.40;;
62984;SDS011;49080;50.062;19.892;2023-12-07T09:26:04;40.50;;;33.10;;
62984;SDS011;49080;50.062;19.892;2023-12-07T09:28:36;48.30;;;38.60;;
62984;SDS011;49080;50.062;19.892;2023-12-07T09:31:09;39.50;;;31.70;;
62984;SDS011;49080;50.062;19.892;2023-12-07T09:33:41;30.30;;;26.10;;
62984;SDS011;49080;50.062;19.892;2023-12-07T09:36:17;46.10;;;36.40;;
62984;SDS011;49080;50.062;19.892;2023-12-07T09:38:50;45.50;;;39.30;;
62984;SDS011;49080;50.062;19.892;2023-12-07T09:41:22;61.10;;;48.80;;
62984;SDS011;49080;50.062;19.892;2023-12-07T09:43:55;46.10;;;37.30;;
62984;SDS011;49080;50.062;19.892;2023-12-07T09:46:29;49.80;;;41.40;;
62984;SDS011;49080;50.062;19.892;2023-12-07T09:49:01;31.20;;;25.40;;
62984;SDS011;49080;50.062;19.892;2023-12-07T09:51:34;62.50;;;49.90;;
62984;SDS011;49080;50.062;19.892;2023-12-07T09:54:07;70.20;;;54.90;;
62984;SDS011;49080;50.062;19.892;2023-12-07T09:56:39;51.70;;;42.70;;
62984;SDS011;49080;50.062;19.892;2023-12-07T09:59:12;67.80;;;53.50;;
62984;SDS011;49080;50.062;19.892;2023-12-07T10:01:44;68.70;;;54.40;;
62984;SDS011;49080;50.062;19.892;2023-12-07T10:04:16;50.60;;;43.00;;
62984;SDS011;49080;50.062;19.892;2023-12-07T10:06:49;40.40;;;33.90;;
62984;SDS011;49080;50.062;19.892;2023-12-07T10:09:21;41.30;;;35.10;;
62984;SDS011;49080;50.062;19.892;2023-12-07T10:14:35;67.20;;;54.60;;
62984;SDS011;49080;50.062;19.892;2023-12-07T10:17:08;62.10;;;49.60;;
62984;SDS011;49080;50.062;19.892;2023-12-07T10:19:40;63.60;;;51.90;;
62984;SDS011;49080;50.062;19.892;2023-12-07T10:22:14;73.50;;;57.00;;
62984;SDS011;49080;50.062;19.892;2023-12-07T10:24:46;49.80;;;42.40;;
62984;SDS011;49080;50.062;19.892;2023-12-07T10:27:19;42.70;;;34.70;;
62984;SDS011;49080;50.062;19.892;2023-12-07T10:29:52;44.50;;;34.90;;
62984;SDS011;49080;50.062;19.892;2023-12-07T10:32:24;57.40;;;46.50;;
62984;SDS011;49080;50.062;19.892;2023-12-07T10:34:57;36.50;;;30.20;;
62984;SDS011;49080;50.062;19.892;2023-12-07T10:37:30;44.20;;;36.30;;
62984;SDS011;49080;50.062;19.892;2023-12-07T10:40:03;52.70;;;43.20;;
62984;SDS011;49080;50.062;19.892;2023-12-07T10:42:37;50.50;;;42.40;;
62984;SDS011;49080;50.062;19.892;2023-12-07T10:45:14;47.30;;;38.90;;
62984;SDS011;49080;50.062;19.892;2023-12-07T10:47:46;63.50;;;51.60;;
62984;SDS011;49080;50.062;19.892;2023-12-07T10:50:20;73.70;;;57.40;;
62984;SDS011;49080;50.062;19.892;2023-12-07T10:52:54;46.20;;;39.70;;
62984;SDS011;49080;50.062;19.892;2023-12-07T10:55:29;73.80;;;56.50;;
62984;SDS011;49080;50.062;19.892;2023-12-07T10:58:03;36.20;;;31.20;;
62984;SDS011;49080;50.062;19.892;2023-12-07T11:00:36;64.10;;;53.50;;
62984;SDS011;49080;50.062;19.892;2023-12-07T11:03:15;53.60;;;43.70;;
62984;SDS011;49080;50.062;19.892;2023-12-07T11:05:48;66.10;;;53.60;;
62984;SDS011;49080;50.062;19.892;2023-12-07T11:08:24;68.30;;;54.60;;
62984;SDS011;49080;50.062;19.892;2023-12-07T11:11:02;65.90;;;53.20;;
62984;SDS011;49080;50.062;19.892;2023-12-07T11:13:38;68.80;;;53.80;;
62984;SDS011;49080;50.062;19.892;2023-12-07T11:16:15;40.60;;;36.10;;
62984;SDS011;49080;50.062;19.892;2023-12-07T11:18:47;27.80;;;24.80;;
62984;SDS011;49080;50.062;19.892;2023-12-07T11:21:19;61.40;;;50.50;;
62984;SDS011;49080;50.062;19.892;2023-12-07T11:23:51;25.30;;;13.70;;
62984;SDS011;49080;50.062;19.892;2023-12-07T11:26:24;43.30;;;36.80;;
62984;SDS011;49080;50.062;19.892;2023-12-07T11:28:56;54.00;;;44.10;;
62984;SDS011;49080;50.062;19.892;2023-12-07T11:31:28;36.30;;;31.20;;
62984;SDS011;49080;50.062;19.892;2023-12-07T11:34:06;43.90;;;36.70;;
62984;SDS011;49080;50.062;19.892;2023-12-07T11:36:43;48.90;;;40.10;;
62984;SDS011;49080;50.062;19.892;2023-12-07T11:39:16;72.20;;;57.60;;
62984;SDS011;49080;50.062;19.892;2023-12-07T11:41:58;58.50;;;46.50;;
62984;SDS011;49080;50.062;19.892;2023-12-07T11:44:40;55.90;;;46.50;;
62984;SDS011;49080;50.062;19.892;2023-12-07T11:47:16;61.40;;;47.10;;
62984;SDS011;49080;50.062;19.892;2023-12-07T11:49:49;33.50;;;29.40;;
62984;SDS011;49080;50.062;19.892;2023-12-07T11:52:21;28.00;;;25.00;;
62984;SDS011;49080;50.062;19.892;2023-12-07T11:54:55;65.40;;;51.50;;
62984;SDS011;49080;50.062;19.892;2023-12-07T11:57:27;71.40;;;56.30;;
62984;SDS011;49080;50.062;19.892;2023-12-07T11:59:59;70.70;;;55.50;;
62984;SDS011;49080;50.062;19.892;2023-12-07T12:02:36;52.50;;;44.20;;
62984;SDS011;49080;50.062;19.892;2023-12-07T12:05:08;33.20;;;28.70;;
62984;SDS011;49080;50.062;19.892;2023-12-07T12:07:42;26.70;;;23.70;;
62984;SDS011;49080;50.062;19.892;2023-12-07T12:10:14;24.50;;;21.30;;
62984;SDS011;49080;50.062;19.892;2023-12-07T12:12:47;31.90;;;28.20;;
62984;SDS011;49080;50.062;19.892;2023-12-07T12:15:19;25.50;;;21.60;;
62984;SDS011;49080;50.062;19.892;2023-12-07T12:17:51;24.10;;;20.90;;
62984;SDS011;49080;50.062;19.892;2023-12-07T12:20:23;35.90;;;30.70;;
62984;SDS011;49080;50.062;19.892;2023-12-07T12:22:55;26.70;;;23.80;;
62984;SDS011;49080;50.062;19.892;2023-12-07T12:25:29;69.80;;;55.00;;
62984;SDS011;49080;50.062;19.892;2023-12-07T12:28:03;48.50;;;40.00;;
62984;SDS011;49080;50.062;19.892;2023-12-07T12:30:36;47.20;;;38.60;;
62984;SDS011;49080;50.062;19.892;2023-12-07T12:33:08;37.20;;;31.90;;
62984;SDS011;49080;50.062;19.892;2023-12-07T12:35:40;32.70;;;27.20;;
62984;SDS011;49080;50.062;19.892;2023-12-07T12:38:13;35.40;;;29.50;;
62984;SDS011;49080;50.062;19.892;2023-12-07T12:40:59;62.30;;;49.00;;
62984;SDS011;49080;50.062;19.892;2023-12-07T12:43:33;79.40;;;62.30;;
62984;SDS011;49080;50.062;19.892;2023-12-07T12:46:05;78.60;;;62.00;;
62984;SDS011;49080;50.062;19.892;2023-12-07T12:48:37;78.30;;;62.60;;
62984;SDS011;49080;50.062;19.892;2023-12-07T12:51:13;80.70;;;62.50;;
62984;SDS011;49080;50.062;19.892;2023-12-07T12:53:46;79.40;;;62.70;;
62984;SDS011;49080;50.062;19.892;2023-12-07T12:56:20;66.70;;;53.70;;
62984;SDS011;49080;50.062;19.892;2023-12-07T12:58:53;87.00;;;66.10;;
62984;SDS011;49080;50.062;19.892;2023-12-07T13:01:33;33.90;;;29.80;;
62984;SDS011;49080;50.062;19.892;2023-12-07T13:04:05;81.60;;;59.70;;
62984;SDS011;49080;50.062;19.892;2023-12-07T13:06:39;88.00;;;66.90;;
62984;SDS011;49080;50.062;19.892;2023-12-07T13:09:12;89.50;;;68.30;;
62984;SDS011;49080;50.062;19.892;2023-12-07T13:11:46;81.20;;;62.60;;
62984;SDS011;49080;50.062;19.892;2023-12-07T13:14:18;81.40;;;62.50;;
62984;SDS011;49080;50.062;19.892;2023-12-07T13:16:50;66.90;;;53.40;;
62984;SDS011;49080;50.062;19.892;2023-12-07T13:19:22;82.90;;;64.80;;
62984;SDS011;49080;50.062;19.892;2023-12-07T13:21:55;80.70;;;63.10;;
62984;SDS011;49080;50.062;19.892;2023-12-07T13:24:27;73.90;;;58.70;;
62984;SDS011;49080;50.062;19.892;2023-12-07T13:26:59;70.10;;;57.10;;
62984;SDS011;49080;50.062;19.892;2023-12-07T13:29:31;73.40;;;57.40;;
62984;SDS011;49080;50.062;19.892;2023-12-07T13:32:05;53.40;;;44.00;;
62984;SDS011;49080;50.062;19.892;2023-12-07T13:34:39;46.80;;;39.20;;
62984;SDS011;49080;50.062;19.892;2023-12-07T13:37:11;19.00;;;9.00;;
62984;SDS011;49080;50.062;19.892;2023-12-07T13:39:43;84.10;;;63.00;;
62984;SDS011;49080;50.062;19.892;2023-12-07T13:42:22;82.70;;;65.50;;
62984;SDS011;49080;50.062;19.892;2023-12-07T13:44:55;76.00;;;60.50;;
62984;SDS011;49080;50.062;19.892;2023-12-07T13:47:29;74.40;;;58.70;;
62984;SDS011;49080;50.062;19.892;2023-12-07T13:50:01;75.30;;;59.90;;
62984;SDS011;49080;50.062;19.892;2023-12-07T13:52:34;79.10;;;64.40;;
62984;SDS011;49080;50.062;19.892;2023-12-07T13:55:07;79.00;;;62.70;;
62984;SDS011;49080;50.062;19.892;2023-12-07T13:57:40;82.40;;;64.80;;
62984;SDS011;49080;50.062;19.892;2023-12-07T14:00:13;77.40;;;60.90;;
62984;SDS011;49080;50.062;19.892;2023-12-07T14:02:46;86.00;;;67.30;;
62984;SDS011;49080;50.062;19.892;2023-12-07T14:05:18;80.70;;;63.70;;
62984;SDS011;49080;50.062;19.892;2023-12-07T14:07:51;58.50;;;49.70;;
62984;SDS011;49080;50.062;19.892;2023-12-07T14:10:23;81.70;;;62.70;;
62984;SDS011;49080;50.062;19.892;2023-12-07T14:12:58;81.40;;;65.20;;
62984;SDS011;49080;50.062;19.892;2023-12-07T14:15:30;76.80;;;58.30;;
62984;SDS011;49080;50.062;19.892;2023-12-07T14:18:13;79.90;;;64.20;;
62984;SDS011;49080;50.062;19.892;2023-12-07T14:20:46;72.10;;;55.90;;
62984;SDS011;49080;50.062;19.892;2023-12-07T14:23:38;75.70;;;58.20;;
62984;SDS011;49080;50.062;19.892;2023-12-07T14:26:19;87.40;;;67.80;;
62984;SDS011;49080;50.062;19.892;2023-12-07T14:28:51;86.60;;;66.90;;
62984;SDS011;49080;50.062;19.892;2023-12-07T14:31:23;82.50;;;65.40;;
62984;SDS011;49080;50.062;19.892;2023-12-07T14:33:55;54.50;;;45.50;;
62984;SDS011;49080;50.062;19.892;2023-12-07T14:36:27;64.20;;;51.10;;
62984;SDS011;49080;50.062;19.892;2023-12-07T14:39:00;67.30;;;52.30;;
62984;SDS011;49080;50.062;19.892;2023-12-07T14:41:34;89.90;;;68.70;;
62984;SDS011;49080;50.062;19.892;2023-12-07T14:44:08;69.80;;;56.30;;
62984;SDS011;49080;50.062;19.892;2023-12-07T14:46:42;65.30;;;53.40;;
62984;SDS011;49080;50.062;19.892;2023-12-07T14:49:16;80.10;;;63.60;;